sensor_id;sensor_type;location;lat;lon;timestamp;P1;durP1;ratioP1;P2;durP2;ratioP2
16308;SDS011;8263;48.880;9.276;2022-08-01T00:02:11;2.08;;;1.80;;
16308;SDS011;8263;48.880;9.276;2022-08-01T00:04:38;3.35;;;1.92;;
16308;SDS011;8263;48.880;9.276;2022-08-01T00:07:04;7.07;;;1.75;;
16308;SDS011;8263;48.880;9.276;2022-08-01T00:09:31;2.67;;;1.98;;
16308;SDS011;8263;48.880;9.276;2022-08-01T00:11:59;4.88;;;2.20;;
16308;SDS011;8263;48.880;9.276;2022-08-01T00:14:25;2.75;;;1.67;;
16308;SDS011;8263;48.880;9.276;2022-08-01T00:16:52;2.38;;;1.92;;
16308;SDS011;8263;48.880;9.276;2022-08-01T00:19:19;3.42;;;2.10;;
16308;SDS011;8263;48.880;9.276;2022-08-01T00:21:46;2.92;;;1.83;;
16308;SDS011;8263;48.880;9.276;2022-08-01T00:24:12;2.97;;;1.90;;
16308;SDS011;8263;48.880;9.276;2022-08-01T00:26:39;2.85;;;1.98;;
16308;SDS011;8263;48.880;9.276;2022-08-01T00:29:07;3.05;;;1.98;;
16308;SDS011;8263;48.880;9.276;2022-08-01T00:31:33;4.05;;;2.35;;
16308;SDS011;8263;48.880;9.276;2022-08-01T00:34:00;2.03;;;1.67;;
16308;SDS011;8263;48.880;9.276;2022-08-01T00:36:27;2.03;;;1.70;;
16308;SDS011;8263;48.880;9.276;2022-08-01T00:38:53;2.88;;;2.10;;
16308;SDS011;8263;48.880;9.276;2022-08-01T00:41:20;2.70;;;2.10;;
16308;SDS011;8263;48.880;9.276;2022-08-01T00:43:46;2.90;;;1.90;;
16308;SDS011;8263;48.880;9.276;2022-08-01T00:46:14;3.65;;;2.10;;
16308;SDS011;8263;48.880;9.276;2022-08-01T00:48:41;2.03;;;1.80;;
16308;SDS011;8263;48.880;9.276;2022-08-01T00:51:07;2.35;;;1.80;;
16308;SDS011;8263;48.880;9.276;2022-08-01T00:53:34;4.38;;;1.95;;
16308;SDS011;8263;48.880;9.276;2022-08-01T00:56:01;3.50;;;2.00;;
16308;SDS011;8263;48.880;9.276;2022-08-01T00:58:28;2.45;;;1.90;;
16308;SDS011;8263;48.880;9.276;2022-08-01T01:00:57;2.70;;;2.10;;
16308;SDS011;8263;48.880;9.276;2022-08-01T01:03:25;4.15;;;2.13;;
16308;SDS011;8263;48.880;9.276;2022-08-01T01:05:55;2.88;;;1.88;;
16308;SDS011;8263;48.880;9.276;2022-08-01T01:08:24;2.70;;;2.00;;
16308;SDS011;8263;48.880;9.276;2022-08-01T01:10:54;4.00;;;2.25;;
16308;SDS011;8263;48.880;9.276;2022-08-01T01:13:23;6.50;;;2.20;;
16308;SDS011;8263;48.880;9.276;2022-08-01T01:15:55;2.63;;;1.88;;
16308;SDS011;8263;48.880;9.276;2022-08-01T01:18:27;2.80;;;1.92;;
16308;SDS011;8263;48.880;9.276;2022-08-01T01:20:57;2.47;;;1.95;;
16308;SDS011;8263;48.880;9.276;2022-08-01T01:23:37;2.47;;;2.10;;
16308;SDS011;8263;48.880;9.276;2022-08-01T01:26:14;4.20;;;2.00;;
16308;SDS011;8263;48.880;9.276;2022-08-01T01:28:59;3.17;;;2.10;;
16308;SDS011;8263;48.880;9.276;2022-08-01T01:31:26;2.55;;;2.00;;
16308;SDS011;8263;48.880;9.276;2022-08-01T01:33:54;3.05;;;2.08;;
16308;SDS011;8263;48.880;9.276;2022-08-01T01:36:21;2.72;;;2.15;;
16308;SDS011;8263;48.880;9.276;2022-08-01T01:38:49;3.30;;;1.88;;
16308;SDS011;8263;48.880;9.276;2022-08-01T01:41:17;3.20;;;1.98;;
16308;SDS011;8263;48.880;9.276;2022-08-01T01:43:44;2.58;;;2.05;;
16308;SDS011;8263;48.880;9.276;2022-08-01T01:46:12;3.08;;;1.80;;
16308;SDS011;8263;48.880;9.276;2022-08-01T01:48:42;2.83;;;2.10;;
16308;SDS011;8263;48.880;9.276;2022-08-01T01:51:09;2.67;;;2.22;;
16308;SDS011;8263;48.880;9.276;2022-08-01T01:53:37;2.65;;;1.70;;
16308;SDS011;8263;48.880;9.276;2022-08-01T01:56:04;3.28;;;2.08;;
16308;SDS011;8263;48.880;9.276;2022-08-01T01:58:31;3.30;;;1.95;;
16308;SDS011;8263;48.880;9.276;2022-08-01T02:00:59;3.30;;;2.03;;
16308;SDS011;8263;48.880;9.276;2022-08-01T02:03:34;2.22;;;1.85;;
16308;SDS011;8263;48.880;9.276;2022-08-01T02:06:02;3.10;;;2.15;;
16308;SDS011;8263;48.880;9.276;2022-08-01T02:08:29;2.20;;;1.88;;
16308;SDS011;8263;48.880;9.276;2022-08-01T02:10:59;2.53;;;2.10;;
16308;SDS011;8263;48.880;9.276;2022-08-01T02:13:46;2.60;;;1.98;;
16308;SDS011;8263;48.880;9.276;2022-08-01T02:16:15;3.28;;;2.00;;
16308;SDS011;8263;48.880;9.276;2022-08-01T02:18:44;2.88;;;1.77;;
16308;SDS011;8263;48.880;9.276;2022-08-01T02:21:12;2.70;;;2.10;;
16308;SDS011;8263;48.880;9.276;2022-08-01T02:23:40;2.22;;;1.95;;
16308;SDS011;8263;48.880;9.276;2022-08-01T02:26:07;2.58;;;1.95;;
16308;SDS011;8263;48.880;9.276;2022-08-01T02:28:41;10.82;;;2.25;;
16308;SDS011;8263;48.880;9.276;2022-08-01T02:31:13;172.27;;;11.02;;
16308;SDS011;8263;48.880;9.276;2022-08-01T02:34:05;63.25;;;4.28;;
16308;SDS011;8263;48.880;9.276;2022-08-01T02:36:35;5.47;;;2.45;;
16308;SDS011;8263;48.880;9.276;2022-08-01T02:39:03;10.23;;;2.63;;
16308;SDS011;8263;48.880;9.276;2022-08-01T02:41:32;10.18;;;2.15;;
16308;SDS011;8263;48.880;9.276;2022-08-01T02:44:09;24.27;;;3.05;;
16308;SDS011;8263;48.880;9.276;2022-08-01T02:46:39;10.23;;;2.10;;
16308;SDS011;8263;48.880;9.276;2022-08-01T02:49:18;21.13;;;2.35;;
16308;SDS011;8263;48.880;9.276;2022-08-01T02:52:04;18.52;;;2.60;;
16308;SDS011;8263;48.880;9.276;2022-08-01T02:54:31;6.75;;;1.90;;
16308;SDS011;8263;48.880;9.276;2022-08-01T02:57:02;1.88;;;1.40;;
16308;SDS011;8263;48.880;9.276;2022-08-01T02:59:36;1.95;;;1.30;;
16308;SDS011;8263;48.880;9.276;2022-08-01T03:02:04;3.65;;;1.40;;
16308;SDS011;8263;48.880;9.276;2022-08-01T03:05:00;1.45;;;1.15;;
16308;SDS011;8263;48.880;9.276;2022-08-01T03:10:54;1.13;;;0.90;;
16308;SDS011;8263;48.880;9.276;2022-08-01T03:13:53;0.93;;;0.88;;
16308;SDS011;8263;48.880;9.276;2022-08-01T03:16:22;1.52;;;1.15;;
16308;SDS011;8263;48.880;9.276;2022-08-01T03:18:55;3.42;;;0.80;;
16308;SDS011;8263;48.880;9.276;2022-08-01T03:21:48;1.13;;;1.00;;
16308;SDS011;8263;48.880;9.276;2022-08-01T03:24:38;0.77;;;0.65;;
16308;SDS011;8263;48.880;9.276;2022-08-01T03:30:28;0.68;;;0.55;;
16308;SDS011;8263;48.880;9.276;2022-08-01T03:33:00;0.70;;;0.70;;
16308;SDS011;8263;48.880;9.276;2022-08-01T03:35:48;1.73;;;1.17;;
16308;SDS011;8263;48.880;9.276;2022-08-01T03:38:21;0.52;;;0.52;;
16308;SDS011;8263;48.880;9.276;2022-08-01T03:40:52;0.98;;;0.77;;
16308;SDS011;8263;48.880;9.276;2022-08-01T03:43:22;1.10;;;0.80;;
16308;SDS011;8263;48.880;9.276;2022-08-01T03:45:49;0.93;;;0.73;;
16308;SDS011;8263;48.880;9.276;2022-08-01T03:51:27;0.68;;;0.60;;
16308;SDS011;8263;48.880;9.276;2022-08-01T03:57:07;0.88;;;0.60;;
16308;SDS011;8263;48.880;9.276;2022-08-01T03:59:35;0.75;;;0.75;;
16308;SDS011;8263;48.880;9.276;2022-08-01T04:04:50;0.50;;;0.50;;
16308;SDS011;8263;48.880;9.276;2022-08-01T04:10:27;0.50;;;0.50;;
16308;SDS011;8263;48.880;9.276;2022-08-01T04:21:28;0.45;;;0.45;;
16308;SDS011;8263;48.880;9.276;2022-08-01T04:23:58;0.50;;;0.50;;
16308;SDS011;8263;48.880;9.276;2022-08-01T04:26:27;0.63;;;0.63;;
16308;SDS011;8263;48.880;9.276;2022-08-01T04:29:14;0.95;;;0.75;;
16308;SDS011;8263;48.880;9.276;2022-08-01T04:31:49;0.70;;;0.63;;
16308;SDS011;8263;48.880;9.276;2022-08-01T04:34:17;0.60;;;0.60;;
16308;SDS011;8263;48.880;9.276;2022-08-01T04:36:47;0.73;;;0.73;;
16308;SDS011;8263;48.880;9.276;2022-08-01T04:39:15;0.60;;;0.60;;
16308;SDS011;8263;48.880;9.276;2022-08-01T04:41:43;0.75;;;0.75;;
16308;SDS011;8263;48.880;9.276;2022-08-01T04:44:13;0.60;;;0.60;;
16308;SDS011;8263;48.880;9.276;2022-08-01T04:46:41;0.68;;;0.68;;
16308;SDS011;8263;48.880;9.276;2022-08-01T04:49:08;1.15;;;0.93;;
16308;SDS011;8263;48.880;9.276;2022-08-01T04:54:28;1.23;;;0.57;;
16308;SDS011;8263;48.880;9.276;2022-08-01T04:56:58;0.60;;;0.60;;
16308;SDS011;8263;48.880;9.276;2022-08-01T04:59:25;0.60;;;0.60;;
16308;SDS011;8263;48.880;9.276;2022-08-01T05:02:19;1.13;;;0.60;;
16308;SDS011;8263;48.880;9.276;2022-08-01T05:04:45;0.47;;;0.47;;
16308;SDS011;8263;48.880;9.276;2022-08-01T05:07:12;2.75;;;0.93;;
16308;SDS011;8263;48.880;9.276;2022-08-01T05:09:40;0.80;;;0.57;;
16308;SDS011;8263;48.880;9.276;2022-08-01T05:12:07;0.82;;;0.82;;
16308;SDS011;8263;48.880;9.276;2022-08-01T05:14:34;0.75;;;0.63;;
16308;SDS011;8263;48.880;9.276;2022-08-01T05:17:15;0.70;;;0.70;;
16308;SDS011;8263;48.880;9.276;2022-08-01T05:21:14;0.60;;;0.60;;
16308;SDS011;8263;48.880;9.276;2022-08-01T05:38:09;0.60;;;0.50;;
16308;SDS011;8263;48.880;9.276;2022-08-01T05:40:35;0.82;;;0.70;;
16308;SDS011;8263;48.880;9.276;2022-08-01T05:43:40;0.65;;;0.65;;
16308;SDS011;8263;48.880;9.276;2022-08-01T05:45:58;0.80;;;0.55;;
16308;SDS011;8263;48.880;9.276;2022-08-01T05:48:26;0.75;;;0.75;;
16308;SDS011;8263;48.880;9.276;2022-08-01T05:51:13;1.10;;;0.70;;
16308;SDS011;8263;48.880;9.276;2022-08-01T06:16:18;0.70;;;0.70;;
16308;SDS011;8263;48.880;9.276;2022-08-01T06:18:44;0.40;;;0.40;;
16308;SDS011;8263;48.880;9.276;2022-08-01T06:21:11;0.63;;;0.63;;
16308;SDS011;8263;48.880;9.276;2022-08-01T06:23:38;3.22;;;0.82;;
16308;SDS011;8263;48.880;9.276;2022-08-01T06:29:13;0.50;;;0.50;;
16308;SDS011;8263;48.880;9.276;2022-08-01T06:31:42;0.60;;;0.60;;
16308;SDS011;8263;48.880;9.276;2022-08-01T06:34:12;0.38;;;0.38;;
16308;SDS011;8263;48.880;9.276;2022-08-01T06:36:53;0.50;;;0.50;;
16308;SDS011;8263;48.880;9.276;2022-08-01T06:39:20;0.50;;;0.50;;
16308;SDS011;8263;48.880;9.276;2022-08-01T06:41:47;0.50;;;0.50;;
16308;SDS011;8263;48.880;9.276;2022-08-01T06:44:34;0.40;;;0.40;;
16308;SDS011;8263;48.880;9.276;2022-08-01T06:47:02;0.55;;;0.55;;
16308;SDS011;8263;48.880;9.276;2022-08-01T06:49:30;0.45;;;0.45;;
16308;SDS011;8263;48.880;9.276;2022-08-01T06:51:56;0.50;;;0.45;;
16308;SDS011;8263;48.880;9.276;2022-08-01T06:54:23;0.60;;;0.43;;
16308;SDS011;8263;48.880;9.276;2022-08-01T06:56:49;0.32;;;0.32;;
16308;SDS011;8263;48.880;9.276;2022-08-01T06:59:16;1.10;;;0.63;;
16308;SDS011;8263;48.880;9.276;2022-08-01T07:01:45;0.60;;;0.60;;
16308;SDS011;8263;48.880;9.276;2022-08-01T07:10:44;0.60;;;0.60;;
16308;SDS011;8263;48.880;9.276;2022-08-01T07:13:13;0.60;;;0.60;;
16308;SDS011;8263;48.880;9.276;2022-08-01T07:16:01;0.68;;;0.68;;
16308;SDS011;8263;48.880;9.276;2022-08-01T07:18:53;0.45;;;0.45;;
16308;SDS011;8263;48.880;9.276;2022-08-01T07:24:35;0.30;;;0.30;;
16308;SDS011;8263;48.880;9.276;2022-08-01T07:27:08;0.40;;;0.40;;
16308;SDS011;8263;48.880;9.276;2022-08-01T07:29:35;0.50;;;0.50;;
16308;SDS011;8263;48.880;9.276;2022-08-01T07:32:02;0.43;;;0.43;;
16308;SDS011;8263;48.880;9.276;2022-08-01T07:34:30;0.60;;;0.60;;
16308;SDS011;8263;48.880;9.276;2022-08-01T07:36:57;0.65;;;0.65;;
16308;SDS011;8263;48.880;9.276;2022-08-01T07:39:24;0.57;;;0.57;;
16308;SDS011;8263;48.880;9.276;2022-08-01T07:41:59;0.73;;;0.68;;
16308;SDS011;8263;48.880;9.276;2022-08-01T07:44:28;0.50;;;0.50;;
16308;SDS011;8263;48.880;9.276;2022-08-01T07:46:55;2.00;;;1.27;;
16308;SDS011;8263;48.880;9.276;2022-08-01T07:49:22;0.75;;;0.50;;
16308;SDS011;8263;48.880;9.276;2022-08-01T07:51:49;0.60;;;0.60;;
16308;SDS011;8263;48.880;9.276;2022-08-01T07:54:15;0.38;;;0.38;;
16308;SDS011;8263;48.880;9.276;2022-08-01T07:56:53;0.60;;;0.55;;
16308;SDS011;8263;48.880;9.276;2022-08-01T07:59:20;0.40;;;0.40;;
16308;SDS011;8263;48.880;9.276;2022-08-01T08:01:49;0.65;;;0.65;;
16308;SDS011;8263;48.880;9.276;2022-08-01T08:04:24;0.70;;;0.70;;
16308;SDS011;8263;48.880;9.276;2022-08-01T08:06:54;0.45;;;0.45;;
16308;SDS011;8263;48.880;9.276;2022-08-01T08:09:21;0.82;;;0.60;;
16308;SDS011;8263;48.880;9.276;2022-08-01T08:11:54;0.60;;;0.60;;
16308;SDS011;8263;48.880;9.276;2022-08-01T08:14:33;0.50;;;0.50;;
16308;SDS011;8263;48.880;9.276;2022-08-01T08:17:04;0.45;;;0.45;;
16308;SDS011;8263;48.880;9.276;2022-08-01T08:19:31;0.52;;;0.52;;
16308;SDS011;8263;48.880;9.276;2022-08-01T08:21:58;1.13;;;0.47;;
16308;SDS011;8263;48.880;9.276;2022-08-01T08:24:25;0.60;;;0.50;;
16308;SDS011;8263;48.880;9.276;2022-08-01T08:26:53;0.60;;;0.60;;
16308;SDS011;8263;48.880;9.276;2022-08-01T08:29:19;0.40;;;0.40;;
16308;SDS011;8263;48.880;9.276;2022-08-01T08:31:46;0.40;;;0.40;;
16308;SDS011;8263;48.880;9.276;2022-08-01T08:34:15;0.60;;;0.60;;
16308;SDS011;8263;48.880;9.276;2022-08-01T08:36:41;2.58;;;0.95;;
16308;SDS011;8263;48.880;9.276;2022-08-01T08:39:08;0.50;;;0.50;;
16308;SDS011;8263;48.880;9.276;2022-08-01T08:41:34;0.50;;;0.50;;
16308;SDS011;8263;48.880;9.276;2022-08-01T08:44:02;0.60;;;0.60;;
16308;SDS011;8263;48.880;9.276;2022-08-01T08:46:29;1.00;;;0.90;;
16308;SDS011;8263;48.880;9.276;2022-08-01T08:48:58;0.60;;;0.60;;
16308;SDS011;8263;48.880;9.276;2022-08-01T08:51:26;0.63;;;0.60;;
16308;SDS011;8263;48.880;9.276;2022-08-01T08:53:56;0.40;;;0.40;;
16308;SDS011;8263;48.880;9.276;2022-08-01T08:56:24;0.60;;;0.60;;
16308;SDS011;8263;48.880;9.276;2022-08-01T08:58:51;0.80;;;0.80;;
16308;SDS011;8263;48.880;9.276;2022-08-01T09:01:19;0.43;;;0.43;;
16308;SDS011;8263;48.880;9.276;2022-08-01T09:03:46;0.60;;;0.60;;
16308;SDS011;8263;48.880;9.276;2022-08-01T09:06:13;0.65;;;0.65;;
16308;SDS011;8263;48.880;9.276;2022-08-01T09:08:41;0.43;;;0.43;;
16308;SDS011;8263;48.880;9.276;2022-08-01T09:11:08;0.40;;;0.40;;
16308;SDS011;8263;48.880;9.276;2022-08-01T09:13:34;0.80;;;0.80;;
16308;SDS011;8263;48.880;9.276;2022-08-01T09:16:01;0.60;;;0.60;;
16308;SDS011;8263;48.880;9.276;2022-08-01T09:18:29;1.67;;;0.63;;
16308;SDS011;8263;48.880;9.276;2022-08-01T09:23:40;0.98;;;0.75;;
16308;SDS011;8263;48.880;9.276;2022-08-01T09:26:10;0.93;;;0.70;;
16308;SDS011;8263;48.880;9.276;2022-08-01T09:28:40;1.42;;;0.95;;
16308;SDS011;8263;48.880;9.276;2022-08-01T09:31:10;1.10;;;1.00;;
16308;SDS011;8263;48.880;9.276;2022-08-01T09:33:47;2.08;;;1.05;;
16308;SDS011;8263;48.880;9.276;2022-08-01T09:36:13;1.15;;;1.00;;
16308;SDS011;8263;48.880;9.276;2022-08-01T09:38:40;2.17;;;0.90;;
16308;SDS011;8263;48.880;9.276;2022-08-01T09:41:08;0.63;;;0.55;;
16308;SDS011;8263;48.880;9.276;2022-08-01T09:43:36;0.93;;;0.65;;
16308;SDS011;8263;48.880;9.276;2022-08-01T09:46:04;1.33;;;0.95;;
16308;SDS011;8263;48.880;9.276;2022-08-01T09:48:31;0.70;;;0.70;;
16308;SDS011;8263;48.880;9.276;2022-08-01T09:50:58;1.20;;;0.93;;
16308;SDS011;8263;48.880;9.276;2022-08-01T09:53:25;1.52;;;1.05;;
16308;SDS011;8263;48.880;9.276;2022-08-01T09:55:51;1.17;;;0.90;;
16308;SDS011;8263;48.880;9.276;2022-08-01T09:58:21;0.98;;;0.70;;
16308;SDS011;8263;48.880;9.276;2022-08-01T10:00:57;1.10;;;1.00;;
16308;SDS011;8263;48.880;9.276;2022-08-01T10:03:25;1.02;;;0.80;;
16308;SDS011;8263;48.880;9.276;2022-08-01T10:05:51;0.98;;;0.70;;
16308;SDS011;8263;48.880;9.276;2022-08-01T10:08:19;0.73;;;0.73;;
16308;SDS011;8263;48.880;9.276;2022-08-01T10:13:31;1.23;;;0.90;;
16308;SDS011;8263;48.880;9.276;2022-08-01T10:16:00;1.35;;;0.80;;
16308;SDS011;8263;48.880;9.276;2022-08-01T10:18:27;0.93;;;0.80;;
16308;SDS011;8263;48.880;9.276;2022-08-01T10:20:54;0.85;;;0.75;;
16308;SDS011;8263;48.880;9.276;2022-08-01T10:23:21;0.85;;;0.60;;
16308;SDS011;8263;48.880;9.276;2022-08-01T10:25:48;1.00;;;0.75;;
16308;SDS011;8263;48.880;9.276;2022-08-01T10:28:17;0.80;;;0.77;;
16308;SDS011;8263;48.880;9.276;2022-08-01T10:30:46;0.75;;;0.75;;
16308;SDS011;8263;48.880;9.276;2022-08-01T10:33:13;0.55;;;0.55;;
16308;SDS011;8263;48.880;9.276;2022-08-01T10:35:40;1.55;;;1.20;;
16308;SDS011;8263;48.880;9.276;2022-08-01T10:38:07;1.00;;;0.80;;
16308;SDS011;8263;48.880;9.276;2022-08-01T10:40:33;0.50;;;0.50;;
16308;SDS011;8263;48.880;9.276;2022-08-01T10:43:01;0.95;;;0.93;;
16308;SDS011;8263;48.880;9.276;2022-08-01T10:45:28;0.90;;;0.90;;
16308;SDS011;8263;48.880;9.276;2022-08-01T10:47:57;1.25;;;0.98;;
16308;SDS011;8263;48.880;9.276;2022-08-01T10:50:27;0.60;;;0.60;;
16308;SDS011;8263;48.880;9.276;2022-08-01T10:53:09;1.00;;;0.90;;
16308;SDS011;8263;48.880;9.276;2022-08-01T10:55:46;0.50;;;0.50;;
16308;SDS011;8263;48.880;9.276;2022-08-01T10:58:13;1.58;;;0.57;;
16308;SDS011;8263;48.880;9.276;2022-08-01T11:00:40;0.70;;;0.70;;
16308;SDS011;8263;48.880;9.276;2022-08-01T11:03:08;1.17;;;0.70;;
16308;SDS011;8263;48.880;9.276;2022-08-01T11:05:35;0.70;;;0.60;;
16308;SDS011;8263;48.880;9.276;2022-08-01T11:08:03;1.10;;;1.00;;
16308;SDS011;8263;48.880;9.276;2022-08-01T11:10:31;1.02;;;0.88;;
16308;SDS011;8263;48.880;9.276;2022-08-01T11:13:00;0.95;;;0.85;;
16308;SDS011;8263;48.880;9.276;2022-08-01T11:15:32;0.95;;;0.90;;
16308;SDS011;8263;48.880;9.276;2022-08-01T11:18:00;1.15;;;0.90;;
16308;SDS011;8263;48.880;9.276;2022-08-01T11:20:29;0.55;;;0.55;;
16308;SDS011;8263;48.880;9.276;2022-08-01T11:29:10;0.90;;;0.90;;
16308;SDS011;8263;48.880;9.276;2022-08-01T11:31:35;1.02;;;0.90;;
16308;SDS011;8263;48.880;9.276;2022-08-01T11:34:01;1.13;;;0.77;;
16308;SDS011;8263;48.880;9.276;2022-08-01T11:36:28;0.90;;;0.80;;
16308;SDS011;8263;48.880;9.276;2022-08-01T11:41:43;0.85;;;0.80;;
16308;SDS011;8263;48.880;9.276;2022-08-01T11:44:10;0.82;;;0.82;;
16308;SDS011;8263;48.880;9.276;2022-08-01T11:49:46;0.80;;;0.65;;
16308;SDS011;8263;48.880;9.276;2022-08-01T11:52:16;0.70;;;0.70;;
16308;SDS011;8263;48.880;9.276;2022-08-01T11:54:43;0.57;;;0.57;;
16308;SDS011;8263;48.880;9.276;2022-08-01T11:57:10;1.38;;;0.68;;
16308;SDS011;8263;48.880;9.276;2022-08-01T11:59:38;0.75;;;0.75;;
16308;SDS011;8263;48.880;9.276;2022-08-01T12:02:14;0.55;;;0.55;;
16308;SDS011;8263;48.880;9.276;2022-08-01T12:04:46;0.63;;;0.60;;
16308;SDS011;8263;48.880;9.276;2022-08-01T12:07:13;1.15;;;0.90;;
16308;SDS011;8263;48.880;9.276;2022-08-01T12:09:39;0.50;;;0.50;;
16308;SDS011;8263;48.880;9.276;2022-08-01T12:12:06;1.40;;;1.15;;
16308;SDS011;8263;48.880;9.276;2022-08-01T12:14:33;0.70;;;0.70;;
16308;SDS011;8263;48.880;9.276;2022-08-01T12:16:59;0.70;;;0.70;;
16308;SDS011;8263;48.880;9.276;2022-08-01T12:19:26;0.57;;;0.57;;
16308;SDS011;8263;48.880;9.276;2022-08-01T12:22:10;0.73;;;0.60;;
16308;SDS011;8263;48.880;9.276;2022-08-01T12:24:38;0.77;;;0.77;;
16308;SDS011;8263;48.880;9.276;2022-08-01T12:27:04;0.60;;;0.60;;
16308;SDS011;8263;48.880;9.276;2022-08-01T12:29:36;0.65;;;0.60;;
16308;SDS011;8263;48.880;9.276;2022-08-01T12:32:03;1.75;;;0.85;;
16308;SDS011;8263;48.880;9.276;2022-08-01T12:34:30;0.70;;;0.70;;
16308;SDS011;8263;48.880;9.276;2022-08-01T12:37:00;0.60;;;0.60;;
16308;SDS011;8263;48.880;9.276;2022-08-01T12:39:32;0.80;;;0.80;;
16308;SDS011;8263;48.880;9.276;2022-08-01T12:41:59;0.70;;;0.70;;
16308;SDS011;8263;48.880;9.276;2022-08-01T12:44:26;0.70;;;0.70;;
16308;SDS011;8263;48.880;9.276;2022-08-01T12:46:54;0.80;;;0.80;;
16308;SDS011;8263;48.880;9.276;2022-08-01T12:49:20;0.60;;;0.60;;
16308;SDS011;8263;48.880;9.276;2022-08-01T12:51:47;0.60;;;0.60;;
16308;SDS011;8263;48.880;9.276;2022-08-01T12:54:14;0.63;;;0.63;;
16308;SDS011;8263;48.880;9.276;2022-08-01T12:56:42;0.60;;;0.60;;
16308;SDS011;8263;48.880;9.276;2022-08-01T13:01:54;0.52;;;0.47;;
16308;SDS011;8263;48.880;9.276;2022-08-01T13:04:21;0.82;;;0.73;;
16308;SDS011;8263;48.880;9.276;2022-08-01T13:06:47;0.82;;;0.75;;
16308;SDS011;8263;48.880;9.276;2022-08-01T13:09:14;0.60;;;0.60;;
16308;SDS011;8263;48.880;9.276;2022-08-01T13:11:42;0.70;;;0.70;;
16308;SDS011;8263;48.880;9.276;2022-08-01T13:14:10;0.82;;;0.70;;
16308;SDS011;8263;48.880;9.276;2022-08-01T13:16:52;0.70;;;0.70;;
16308;SDS011;8263;48.880;9.276;2022-08-01T13:19:18;0.70;;;0.57;;
16308;SDS011;8263;48.880;9.276;2022-08-01T13:21:54;0.70;;;0.68;;
16308;SDS011;8263;48.880;9.276;2022-08-01T13:24:25;0.73;;;0.73;;
16308;SDS011;8263;48.880;9.276;2022-08-01T13:26:54;0.50;;;0.50;;
16308;SDS011;8263;48.880;9.276;2022-08-01T13:29:28;0.90;;;0.77;;
16308;SDS011;8263;48.880;9.276;2022-08-01T13:31:55;0.50;;;0.50;;
16308;SDS011;8263;48.880;9.276;2022-08-01T13:34:28;0.30;;;0.30;;
16308;SDS011;8263;48.880;9.276;2022-08-01T13:36:55;0.50;;;0.50;;
16308;SDS011;8263;48.880;9.276;2022-08-01T13:39:22;1.05;;;0.60;;
16308;SDS011;8263;48.880;9.276;2022-08-01T13:42:08;0.55;;;0.55;;
16308;SDS011;8263;48.880;9.276;2022-08-01T13:44:35;0.52;;;0.52;;
16308;SDS011;8263;48.880;9.276;2022-08-01T13:47:02;0.60;;;0.60;;
16308;SDS011;8263;48.880;9.276;2022-08-01T13:49:28;0.50;;;0.50;;
16308;SDS011;8263;48.880;9.276;2022-08-01T13:51:55;0.40;;;0.40;;
16308;SDS011;8263;48.880;9.276;2022-08-01T13:54:21;0.52;;;0.52;;
16308;SDS011;8263;48.880;9.276;2022-08-01T13:56:48;0.60;;;0.43;;
16308;SDS011;8263;48.880;9.276;2022-08-01T13:59:16;0.57;;;0.57;;
16308;SDS011;8263;48.880;9.276;2022-08-01T14:01:43;0.63;;;0.63;;
16308;SDS011;8263;48.880;9.276;2022-08-01T14:04:10;0.63;;;0.63;;
16308;SDS011;8263;48.880;9.276;2022-08-01T14:06:36;0.52;;;0.50;;
16308;SDS011;8263;48.880;9.276;2022-08-01T14:09:03;0.40;;;0.40;;
16308;SDS011;8263;48.880;9.276;2022-08-01T14:11:29;0.32;;;0.32;;
16308;SDS011;8263;48.880;9.276;2022-08-01T14:13:56;0.55;;;0.52;;
16308;SDS011;8263;48.880;9.276;2022-08-01T14:16:24;0.40;;;0.40;;
16308;SDS011;8263;48.880;9.276;2022-08-01T14:18:50;0.45;;;0.35;;
16308;SDS011;8263;48.880;9.276;2022-08-01T14:21:17;0.38;;;0.38;;
16308;SDS011;8263;48.880;9.276;2022-08-01T14:23:44;0.95;;;0.50;;
16308;SDS011;8263;48.880;9.276;2022-08-01T14:26:10;0.68;;;0.68;;
16308;SDS011;8263;48.880;9.276;2022-08-01T14:28:37;0.60;;;0.60;;
16308;SDS011;8263;48.880;9.276;2022-08-01T14:31:04;0.57;;;0.50;;
16308;SDS011;8263;48.880;9.276;2022-08-01T14:33:33;0.40;;;0.40;;
16308;SDS011;8263;48.880;9.276;2022-08-01T14:35:59;0.60;;;0.60;;
16308;SDS011;8263;48.880;9.276;2022-08-01T14:38:26;0.40;;;0.40;;
16308;SDS011;8263;48.880;9.276;2022-08-01T14:40:52;0.43;;;0.43;;
16308;SDS011;8263;48.880;9.276;2022-08-01T14:43:19;0.55;;;0.50;;
16308;SDS011;8263;48.880;9.276;2022-08-01T14:45:46;0.50;;;0.50;;
16308;SDS011;8263;48.880;9.276;2022-08-01T14:48:15;0.90;;;0.63;;
16308;SDS011;8263;48.880;9.276;2022-08-01T14:50:43;0.57;;;0.57;;
16308;SDS011;8263;48.880;9.276;2022-08-01T14:53:10;0.68;;;0.55;;
16308;SDS011;8263;48.880;9.276;2022-08-01T14:55:36;0.77;;;0.77;;
16308;SDS011;8263;48.880;9.276;2022-08-01T14:58:03;0.50;;;0.50;;
16308;SDS011;8263;48.880;9.276;2022-08-01T15:00:29;0.77;;;0.77;;
16308;SDS011;8263;48.880;9.276;2022-08-01T15:02:56;0.63;;;0.60;;
16308;SDS011;8263;48.880;9.276;2022-08-01T15:05:23;0.57;;;0.57;;
16308;SDS011;8263;48.880;9.276;2022-08-01T15:07:51;0.47;;;0.47;;
16308;SDS011;8263;48.880;9.276;2022-08-01T15:10:17;1.23;;;0.50;;
16308;SDS011;8263;48.880;9.276;2022-08-01T15:12:44;0.70;;;0.60;;
16308;SDS011;8263;48.880;9.276;2022-08-01T15:15:10;1.05;;;0.70;;
16308;SDS011;8263;48.880;9.276;2022-08-01T15:17:37;0.35;;;0.35;;
16308;SDS011;8263;48.880;9.276;2022-08-01T15:20:05;0.70;;;0.47;;
16308;SDS011;8263;48.880;9.276;2022-08-01T15:22:32;0.50;;;0.50;;
16308;SDS011;8263;48.880;9.276;2022-08-01T15:25:01;0.45;;;0.45;;
16308;SDS011;8263;48.880;9.276;2022-08-01T15:27:28;0.40;;;0.40;;
16308;SDS011;8263;48.880;9.276;2022-08-01T15:29:55;0.77;;;0.68;;
16308;SDS011;8263;48.880;9.276;2022-08-01T15:32:21;0.77;;;0.45;;
16308;SDS011;8263;48.880;9.276;2022-08-01T15:34:48;0.82;;;0.52;;
16308;SDS011;8263;48.880;9.276;2022-08-01T15:37:15;0.35;;;0.35;;
16308;SDS011;8263;48.880;9.276;2022-08-01T15:39:42;0.40;;;0.40;;
16308;SDS011;8263;48.880;9.276;2022-08-01T15:42:10;0.50;;;0.50;;
16308;SDS011;8263;48.880;9.276;2022-08-01T15:44:39;0.65;;;0.63;;
16308;SDS011;8263;48.880;9.276;2022-08-01T15:47:06;1.23;;;0.50;;
16308;SDS011;8263;48.880;9.276;2022-08-01T15:49:33;0.50;;;0.50;;
16308;SDS011;8263;48.880;9.276;2022-08-01T15:52:01;0.43;;;0.43;;
16308;SDS011;8263;48.880;9.276;2022-08-01T15:54:27;0.47;;;0.47;;
16308;SDS011;8263;48.880;9.276;2022-08-01T15:56:54;0.40;;;0.40;;
16308;SDS011;8263;48.880;9.276;2022-08-01T15:59:22;0.50;;;0.50;;
16308;SDS011;8263;48.880;9.276;2022-08-01T16:01:48;0.30;;;0.30;;
16308;SDS011;8263;48.880;9.276;2022-08-01T16:04:15;0.60;;;0.50;;
16308;SDS011;8263;48.880;9.276;2022-08-01T16:06:42;0.52;;;0.52;;
16308;SDS011;8263;48.880;9.276;2022-08-01T16:09:08;0.50;;;0.50;;
16308;SDS011;8263;48.880;9.276;2022-08-01T16:11:35;0.50;;;0.50;;
16308;SDS011;8263;48.880;9.276;2022-08-01T16:14:02;1.08;;;0.57;;
16308;SDS011;8263;48.880;9.276;2022-08-01T16:16:30;0.63;;;0.63;;
16308;SDS011;8263;48.880;9.276;2022-08-01T16:18:56;0.52;;;0.52;;
16308;SDS011;8263;48.880;9.276;2022-08-01T16:21:23;0.60;;;0.60;;
16308;SDS011;8263;48.880;9.276;2022-08-01T16:23:50;0.40;;;0.40;;
16308;SDS011;8263;48.880;9.276;2022-08-01T16:26:17;0.30;;;0.30;;
16308;SDS011;8263;48.880;9.276;2022-08-01T16:28:43;0.60;;;0.60;;
16308;SDS011;8263;48.880;9.276;2022-08-01T16:31:12;0.40;;;0.40;;
16308;SDS011;8263;48.880;9.276;2022-08-01T16:33:40;0.43;;;0.43;;
16308;SDS011;8263;48.880;9.276;2022-08-01T16:36:07;0.30;;;0.30;;
16308;SDS011;8263;48.880;9.276;2022-08-01T16:38:34;0.75;;;0.40;;
16308;SDS011;8263;48.880;9.276;2022-08-01T16:41:01;0.45;;;0.45;;
16308;SDS011;8263;48.880;9.276;2022-08-01T16:43:28;0.73;;;0.35;;
16308;SDS011;8263;48.880;9.276;2022-08-01T16:45:54;0.20;;;0.20;;
16308;SDS011;8263;48.880;9.276;2022-08-01T16:48:21;0.50;;;0.50;;
16308;SDS011;8263;48.880;9.276;2022-08-01T16:50:50;0.60;;;0.60;;
16308;SDS011;8263;48.880;9.276;2022-08-01T16:53:17;0.40;;;0.40;;
16308;SDS011;8263;48.880;9.276;2022-08-01T16:55:43;0.30;;;0.30;;